Time;durP1;ratioP1;P1;durP2;ratioP2;P2;SDS_P1;SDS_P2;PMS_P1;PMS_P2;Temp;Humidity;BMP_temperature;BMP_pressure;BME280_temperature;BME280_humidity;BME280_pressure;Samples;Min_cycle;Max_cycle;Signal;HPM_P1;HPM_P2
2022/03/25 00:01:07;;;;;;;;;54.75;42.75;;;;;14.75;30.25;102210.03;5000868;28;46082;-70
2022/03/25 00:03:33;;;;;;;;;50.00;41.50;;;;;14.86;30.33;102217.97;5018470;28;45213;-69
2022/03/25 00:05:59;;;;;;;;;56.00;45.25;;;;;14.81;30.32;102221.03;5019529;28;45346;-69
2022/03/25 00:08:26;;;;;;;;;55.00;44.75;;;;;14.84;30.72;102211.91;5001132;28;48801;-70
2022/03/25 00:10:51;;;;;;;;;62.25;49.25;;;;;14.94;30.50;102230.69;5000811;28;45493;-69
2022/03/25 00:13:17;;;;;;;;;55.50;44.25;;;;;14.80;30.59;102211.31;5018804;28;45506;-71
2022/03/25 00:15:42;;;;;;;;;59.25;45.25;;;;;14.88;30.56;102222.22;5018187;28;45625;-68
2022/03/25 00:18:07;;;;;;;;;61.25;46.50;;;;;14.91;30.22;102229.13;5017394;28;45482;-69
2022/03/25 00:20:33;;;;;;;;;60.25;46.50;;;;;14.88;30.69;102230.25;5018700;28;46030;-69
2022/03/25 00:22:58;;;;;;;;;54.75;44.00;;;;;14.89;30.33;102229.25;5017472;28;45415;-68
2022/03/25 00:25:23;;;;;;;;;51.50;43.00;;;;;14.87;30.26;102223.19;5019087;28;45434;-72
2022/03/25 00:27:49;;;;;;;;;56.75;45.00;;;;;14.73;30.12;102191.44;5000814;28;47237;-69
2022/03/25 00:30:14;;;;;;;;;59.75;47.25;;;;;14.87;30.50;102225.88;5000818;28;45559;-71
2022/03/25 00:32:40;;;;;;;;;55.50;45.50;;;;;14.84;30.12;102231.50;5000410;28;45429;-70
2022/03/25 00:35:06;;;;;;;;;59.50;47.25;;;;;14.79;30.40;102232.88;5018943;28;45436;-69
2022/03/25 00:37:32;;;;;;;;;58.50;46.00;;;;;14.78;30.20;102221.31;5018853;28;46931;-68
2022/03/25 00:39:58;;;;;;;;;53.75;41.00;;;;;14.59;30.81;102194.47;5017923;28;45414;-68
2022/03/25 00:42:24;;;;;;;;;62.50;48.00;;;;;14.65;31.10;102220.72;5019115;28;45554;-67
2022/03/25 00:44:50;;;;;;;;;58.25;46.50;;;;;14.69;30.44;102232.84;5017561;28;45567;-67
2022/03/25 00:47:15;;;;;;;;;61.25;45.75;;;;;14.63;31.21;102225.38;5018133;28;46259;-69
2022/03/25 00:49:40;;;;;;;;;61.75;45.50;;;;;14.65;30.81;102230.59;5018583;28;45485;-70
2022/03/25 00:52:06;;;;;;;;;50.75;43.00;;;;;14.52;31.08;102212.06;5018753;28;45440;-71
2022/03/25 00:54:32;;;;;;;;;51.50;42.75;;;;;14.41;31.23;102186.19;5000558;28;45434;-69
2022/03/25 00:56:58;;;;;;;;;57.00;46.00;;;;;14.67;31.13;102224.09;5017521;28;46255;-70
2022/03/25 00:59:23;;;;;;;;;64.50;50.50;;;;;14.68;30.98;102228.47;5018434;28;45367;-69
2022/03/25 01:01:49;;;;;;;;;64.50;51.25;;;;;14.66;30.67;102226.91;5017441;28;46640;-67
2022/03/25 01:04:16;;;;;;;;;69.25;53.50;;;;;14.63;31.30;102233.41;5018600;28;45257;-68
2022/03/25 01:06:42;;;;;;;;;65.00;50.75;;;;;14.54;30.99;102218.13;5017841;28;46368;-69
2022/03/25 01:09:07;;;;;;;;;62.50;50.75;;;;;14.61;31.72;102229.97;4999836;28;46210;-68
2022/03/25 01:11:35;;;;;;;;;53.75;43.25;;;;;14.59;31.48;102235.47;5017642;28;45571;-70
2022/03/25 01:14:01;;;;;;;;;57.25;45.25;;;;;14.59;31.69;102221.25;5017979;28;45645;-67
2022/03/25 01:16:26;;;;;;;;;59.25;46.00;;;;;14.17;31.75;102151.72;4999501;28;45611;-70
2022/03/25 01:18:52;;;;;;;;;67.00;50.50;;;;;14.56;31.51;102218.84;5018103;28;45440;-68
2022/03/25 01:21:17;;;;;;;;;64.25;48.75;;;;;14.50;31.44;102212.19;4999809;28;45379;-70
2022/03/25 01:23:44;;;;;;;;;57.75;46.00;;;;;14.58;31.44;102220.38;5018583;28;45374;-70
2022/03/25 01:26:09;;;;;;;;;59.50;48.25;;;;;14.53;31.59;102219.94;5001502;28;47330;-69
2022/03/25 01:28:35;;;;;;;;;52.25;41.50;;;;;14.36;31.85;102198.28;4998046;28;45202;-69
2022/03/25 01:31:03;;;;;;;;;60.50;48.50;;;;;14.37;31.81;102189.28;4999311;28;45438;-67
2022/03/25 01:33:28;;;;;;;;;59.75;47.25;;;;;14.50;31.71;102206.00;4999397;28;45546;-69
2022/03/25 01:35:54;;;;;;;;;58.25;45.50;;;;;14.44;31.80;102206.53;5002851;28;46991;-69
2022/03/25 01:38:21;;;;;;;;;60.00;45.75;;;;;14.37;31.89;102195.47;5000155;28;45428;-67
2022/03/25 01:40:46;;;;;;;;;58.00;44.00;;;;;14.37;31.97;102203.50;5013521;28;45227;-69
2022/03/25 01:43:12;;;;;;;;;61.00;49.00;;;;;14.25;32.10;102177.81;4981402;28;45641;-70
2022/03/25 01:45:38;;;;;;;;;64.50;48.25;;;;;14.00;32.51;102153.16;5015256;28;46827;-68
2022/03/25 01:48:14;;;;;;;;;42.75;34.50;;;;;14.31;32.03;102196.84;5017898;28;45539;-70
2022/03/25 01:50:42;;;;;;;;;62.75;49.00;;;;;14.27;32.28;102194.59;5015925;28;45338;-67
2022/03/25 01:53:19;;;;;;;;;63.50;50.75;;;;;14.16;32.72;102182.13;5017059;28;45566;-68
2022/03/25 01:55:57;;;;;;;;;54.75;43.25;;;;;14.04;32.55;102171.66;5016480;28;47356;-68
2022/03/25 01:58:25;;;;;;;;;61.25;48.00;;;;;14.12;32.76;102198.56;5017438;28;45483;-69
2022/03/25 02:00:50;;;;;;;;;58.75;45.00;;;;;14.03;32.80;102194.88;5017030;28;45541;-69
2022/03/25 02:03:16;;;;;;;;;56.25;45.50;;;;;14.05;32.49;102200.09;5017499;28;45277;-69
2022/03/25 02:05:43;;;;;;;;;59.25;49.25;;;;;13.75;32.61;102158.09;4999658;28;47344;-67
2022/03/25 02:08:09;;;;;;;;;55.50;45.50;;;;;13.55;32.80;102133.88;5017441;28;45423;-68
2022/03/25 02:10:34;;;;;;;;;65.00;50.75;;;;;13.87;32.93;102197.16;5017118;28;45514;-71
2022/03/25 02:13:00;;;;;;;;;67.50;51.75;;;;;13.83;33.61;102201.06;5017175;28;45451;-70
2022/03/25 02:15:37;;;;;;;;;61.25;47.25;;;;;13.62;33.38;102174.31;5016891;28;45586;-71
2022/03/25 02:18:05;;;;;;;;;56.75;46.00;;;;;12.59;33.43;102007.56;5016387;28;45487;-71
2022/03/25 02:20:31;;;;;;;;;56.50;45.00;;;;;13.49;34.08;102187.84;5016907;28;45237;-69
2022/03/25 02:22:57;;;;;;;;;67.25;51.00;;;;;13.43;34.12;102193.72;4998826;28;45576;-68
2022/03/25 02:25:26;;;;;;;;;55.75;45.50;;;;;13.34;34.27;102183.78;4998104;28;47180;-70
2022/03/25 02:27:52;;;;;;;;;57.00;44.25;;;;;13.31;34.13;102184.03;5016619;28;45443;-69
2022/03/25 02:30:20;;;;;;;;;57.75;46.50;;;;;13.43;34.01;102201.72;5016935;28;45352;-69
2022/03/25 02:32:45;;;;;;;;;57.25;45.00;;;;;12.83;34.17;102098.97;5016954;28;45630;-69
2022/03/25 02:35:11;;;;;;;;;62.25;49.00;;;;;13.36;34.37;102195.19;5016730;28;45301;-70
2022/03/25 02:37:36;;;;;;;;;58.50;45.75;;;;;12.97;34.39;102133.34;5016811;28;45530;-67
2022/03/25 02:40:02;;;;;;;;;58.50;45.50;;;;;13.38;34.37;102201.25;4998751;28;45311;-68
2022/03/25 02:42:28;;;;;;;;;61.50;48.00;;;;;13.34;34.79;102200.66;4998342;28;45413;-69
2022/03/25 02:44:53;;;;;;;;;60.00;47.25;;;;;13.06;34.24;102148.63;5015090;28;46756;-68
2022/03/25 02:47:19;;;;;;;;;60.75;46.00;;;;;13.20;34.51;102197.41;5016685;28;45242;-69
2022/03/25 02:49:45;;;;;;;;;59.50;47.00;;;;;13.19;34.49;102193.88;5016952;28;45873;-69
2022/03/25 02:52:10;;;;;;;;;60.50;46.00;;;;;13.23;34.92;102197.19;5016818;28;45419;-69
2022/03/25 02:54:36;;;;;;;;;59.00;46.25;;;;;13.10;34.98;102181.28;5015827;28;45531;-67
2022/03/25 02:57:01;;;;;;;;;62.00;49.50;;;;;13.23;34.77;102202.53;5015035;28;45383;-70
2022/03/25 02:59:27;;;;;;;;;61.00;46.00;;;;;12.92;34.68;102154.25;5016987;28;45214;-70
2022/03/25 03:01:52;;;;;;;;;59.50;44.50;;;;;12.78;35.04;102122.47;5016687;28;45324;-68
2022/03/25 03:04:18;;;;;;;;;61.00;47.00;;;;;12.99;34.82;102154.59;5016033;28;46331;-66
2022/03/25 03:06:46;;;;;;;;;59.50;46.00;;;;;13.17;35.30;102186.94;5016514;28;45360;-67
2022/03/25 03:09:12;;;;;;;;;55.50;44.50;;;;;13.15;34.79;102194.25;5016918;28;45228;-69
2022/03/25 03:11:37;;;;;;;;;61.00;47.25;;;;;13.19;34.71;102195.72;5016668;28;45317;-67
2022/03/25 03:14:04;;;;;;;;;58.00;45.50;;;;;12.82;34.96;102128.44;5015950;28;46523;-68
2022/03/25 03:16:29;;;;;;;;;57.50;45.75;;;;;13.30;34.85;102209.03;5016300;28;45587;-70
2022/03/25 03:18:54;;;;;;;;;61.25;47.75;;;;;13.20;34.71;102197.41;5016550;28;45459;-68
2022/03/25 03:21:23;;;;;;;;;41.25;31.75;;;;;13.23;34.90;102197.19;5016216;28;45606;-68
2022/03/25 03:23:52;;;;;;;;;54.50;43.25;;;;;13.17;34.93;102186.94;4998723;28;47598;-67
2022/03/25 03:26:18;;;;;;;;;61.25;48.00;;;;;13.19;35.03;102187.69;5015941;28;45340;-69
2022/03/25 03:29:09;;;;;;;;;58.00;46.00;;;;;13.21;35.24;102199.94;4998428;28;45585;-70
2022/03/25 03:31:35;;;;;;;;;57.00;43.50;;;;;13.15;35.19;102194.25;4998777;28;45708;-70
2022/03/25 03:34:00;;;;;;;;;61.50;46.50;;;;;13.03;35.25;102188.94;5015681;28;45494;-71
2022/03/25 03:36:26;;;;;;;;;61.75;47.75;;;;;13.03;35.45;102201.44;5016341;28;45245;-69
2022/03/25 03:38:51;;;;;;;;;53.75;40.75;;;;;13.00;35.28;102197.16;5016447;28;45432;-68
2022/03/25 03:41:16;;;;;;;;;57.25;46.25;;;;;12.65;35.32;102143.16;5016779;28;45245;-69
2022/03/25 03:43:42;;;;;;;;;61.50;47.75;;;;;12.97;35.98;102202.75;5014519;28;47912;-68
2022/03/25 03:46:08;;;;;;;;;53.50;44.50;;;;;12.92;35.85;102193.44;5015319;28;45451;-69
2022/03/25 03:48:33;;;;;;;;;59.50;45.00;;;;;12.90;35.63;102188.22;5016196;28;45181;-69
2022/03/25 03:50:59;;;;;;;;;58.00;45.50;;;;;12.99;35.96;102194.63;5016476;28;45487;-69
2022/03/25 03:53:24;;;;;;;;;55.50;43.25;;;;;12.90;36.34;102204.25;5001509;28;47449;-69
2022/03/25 03:55:49;;;;;;;;;58.75;47.25;;;;;12.90;35.58;102190.91;5018717;28;45585;-71
2022/03/25 03:58:15;;;;;;;;;58.00;45.50;;;;;12.93;35.86;102190.63;5001650;28;45377;-68
2022/03/25 04:00:40;;;;;;;;;62.00;47.25;;;;;12.94;36.21;102199.50;5019511;28;45397;-69
2022/03/25 04:03:06;;;;;;;;;55.00;44.00;;;;;12.88;35.74;102197.34;5017984;28;45579;-70
2022/03/25 04:05:32;;;;;;;;;56.75;44.50;;;;;12.90;36.49;102201.56;5019233;28;45303;-66
2022/03/25 04:07:58;;;;;;;;;60.00;46.75;;;;;12.63;36.46;102158.44;5019553;28;45581;-69
2022/03/25 04:10:23;;;;;;;;;58.50;44.25;;;;;12.84;36.52;102210.09;5019099;28;45529;-70
2022/03/25 04:12:48;;;;;;;;;59.00;47.50;;;;;12.73;36.59;102188.72;5000695;28;47495;-70
2022/03/25 04:15:15;;;;;;;;;58.00;45.75;;;;;12.82;36.21;102204.03;5018442;28;47308;-69
2022/03/25 04:17:42;;;;;;;;;55.25;44.25;;;;;12.86;36.45;102205.47;5019224;28;45251;-69
2022/03/25 04:20:10;;;;;;;;;59.50;46.25;;;;;12.88;36.45;102208.84;5019259;28;45471;-67
2022/03/25 04:22:36;;;;;;;;;55.50;45.00;;;;;12.69;36.06;102176.59;5000604;28;47821;-69
2022/03/25 04:25:02;;;;;;;;;54.75;44.75;;;;;12.89;36.13;102207.88;5018229;28;45586;-68
2022/03/25 04:27:30;;;;;;;;;58.50;44.50;;;;;12.88;35.85;102202.66;5003034;28;45541;-69
2022/03/25 04:29:55;;;;;;;;;59.50;45.25;;;;;12.97;36.18;102201.91;4981886;28;45592;-70
2022/03/25 04:32:21;;;;;;;;;55.00;44.25;;;;;11.89;36.24;102032.75;5016001;28;45463;-69
2022/03/25 04:34:46;;;;;;;;;59.00;46.00;;;;;12.58;36.53;102153.44;5018686;28;45350;-68
2022/03/25 04:37:12;;;;;;;;;61.00;46.25;;;;;12.84;36.63;102196.75;5000777;28;45544;-68
2022/03/25 04:39:37;;;;;;;;;58.75;44.00;;;;;12.34;36.19;102112.72;5019269;28;45299;-68
2022/03/25 04:42:03;;;;;;;;;57.25;46.75;;;;;12.88;36.15;102203.53;5000607;28;45284;-69
2022/03/25 04:44:29;;;;;;;;;58.00;46.25;;;;;12.54;36.56;102157.31;5017704;28;45553;-68
2022/03/25 04:46:55;;;;;;;;;59.50;44.50;;;;;12.86;36.59;102205.47;4997022;28;45785;-68
2022/03/25 04:49:21;;;;;;;;;59.75;46.00;;;;;12.79;36.83;102215.75;4998421;28;45409;-70
2022/03/25 04:51:46;;;;;;;;;56.50;44.25;;;;;12.75;36.39;102203.66;4996798;28;48715;-68
2022/03/25 04:54:12;;;;;;;;;55.50;45.75;;;;;12.86;36.93;102220.63;4994612;28;45609;-72
2022/03/25 04:56:38;;;;;;;;;56.00;46.00;;;;;12.83;36.67;102218.22;4985440;28;45985;-70
2022/03/25 04:59:03;;;;;;;;;60.00;46.50;;;;;12.81;36.45;102218.31;4978008;28;46341;-68
2022/03/25 05:01:29;;;;;;;;;55.25;43.75;;;;;12.72;36.61;102211.91;4982739;28;45721;-68
2022/03/25 05:03:54;;;;;;;;;58.00;45.25;;;;;12.80;37.04;102235.28;4990893;28;45591;-68
2022/03/25 05:06:20;;;;;;;;;61.50;44.50;;;;;12.60;37.29;102209.34;4998543;28;45306;-68
2022/03/25 05:08:45;;;;;;;;;56.75;45.50;;;;;12.61;36.81;102213.72;4998456;28;45351;-68
2022/03/25 05:11:10;;;;;;;;;55.50;45.50;;;;;12.72;37.09;102240.41;4997280;28;48685;-69
2022/03/25 05:13:36;;;;;;;;;57.50;45.00;;;;;12.65;37.12;102228.53;4998440;28;45278;-67
2022/03/25 05:16:01;;;;;;;;;63.25;47.00;;;;;12.72;37.55;102233.25;4997931;28;45302;-70
2022/03/25 05:18:30;;;;;;;;;57.75;46.00;;;;;12.12;36.99;102140.22;4998670;28;45212;-70
2022/03/25 05:20:56;;;;;;;;;57.00;45.50;;;;;12.73;37.39;102242.94;4996273;28;48035;-67
2022/03/25 05:23:22;;;;;;;;;51.25;39.50;;;;;12.65;37.58;102228.53;4998224;28;45516;-69
2022/03/25 05:25:48;;;;;;;;;60.25;46.75;;;;;12.52;37.89;102211.78;4997582;28;45398;-68
2022/03/25 05:28:16;;;;;;;;;53.00;42.25;;;;;12.52;37.89;102231.31;4997747;28;45427;-69
2022/03/25 05:30:42;;;;;;;;;60.00;47.75;;;;;12.42;38.03;102235.66;4997566;28;47494;-69
2022/03/25 05:33:08;;;;;;;;;57.75;46.00;;;;;12.40;38.08;102233.09;4990330;28;45522;-66
2022/03/25 05:35:33;;;;;;;;;61.00;46.75;;;;;12.36;38.32;102230.78;4981975;28;45503;-68
2022/03/25 05:37:58;;;;;;;;;61.75;47.50;;;;;12.25;37.97;102220.97;4998500;28;45434;-69
2022/03/25 05:40:25;;;;;;;;;58.50;45.00;;;;;12.37;38.40;102244.00;4996649;28;47637;-68
2022/03/25 05:42:51;;;;;;;;;57.50;47.50;;;;;12.35;38.40;102226.44;4997498;28;45417;-69
2022/03/25 05:45:19;;;;;;;;;60.25;46.25;;;;;12.34;38.48;102241.59;4996693;28;45346;-70
2022/03/25 05:47:45;;;;;;;;;56.00;43.25;;;;;12.14;38.44;102212.94;5000196;28;45294;-69
2022/03/25 05:50:11;;;;;;;;;62.00;47.75;;;;;11.97;38.63;102198.25;5017076;28;46007;-70
2022/03/25 05:52:37;;;;;;;;;56.25;44.75;;;;;11.81;38.58;102169.28;5017394;28;45175;-69
2022/03/25 05:55:04;;;;;;;;;60.25;47.50;;;;;12.08;38.80;102210.75;5016845;28;45229;-66
2022/03/25 05:57:30;;;;;;;;;62.00;48.00;;;;;12.15;38.49;102214.63;4999646;28;45568;-70
2022/03/25 05:59:58;;;;;;;;;65.00;49.25;;;;;12.22;37.97;102223.88;5017051;28;45526;-72
2022/03/25 06:02:23;;;;;;;;;58.00;46.50;;;;;12.40;38.56;102251.75;5016738;28;45604;-67
2022/03/25 06:04:57;;;;;;;;;58.50;45.75;;;;;12.28;38.82;102236.72;5016653;28;45445;-68
2022/03/25 06:07:24;;;;;;;;;63.50;46.25;;;;;12.37;39.15;102253.81;5017864;28;45530;-68
2022/03/25 06:09:51;;;;;;;;;61.50;47.50;;;;;12.11;38.73;102224.69;5016355;28;46397;-68
2022/03/25 06:12:16;;;;;;;;;49.75;40.25;;;;;12.29;38.45;102243.75;5016195;28;45606;-69
2022/03/25 06:14:42;;;;;;;;;66.50;51.75;;;;;12.30;39.03;102250.78;5016869;28;45247;-70
2022/03/25 06:17:07;;;;;;;;;64.25;48.25;;;;;12.26;38.55;102248.50;4999161;28;45472;-70
2022/03/25 06:19:33;;;;;;;;;64.25;50.00;;;;;12.23;38.45;102244.25;5017005;28;46152;-69
2022/03/25 06:21:59;;;;;;;;;60.50;46.50;;;;;12.17;38.95;102240.22;5017420;28;45305;-67
2022/03/25 06:24:25;;;;;;;;;47.75;35.75;;;;;12.29;38.43;102259.75;4999589;28;45599;-69
2022/03/25 06:26:52;;;;;;;;;64.25;49.00;;;;;12.47;38.27;102271.69;4998087;28;45772;-68
2022/03/25 06:29:18;;;;;;;;;62.75;48.00;;;;;12.03;38.09;102194.28;4992158;28;47075;-71
2022/03/25 06:31:44;;;;;;;;;59.00;45.75;;;;;12.37;38.53;102248.50;4997105;28;45409;-67
2022/03/25 06:34:09;;;;;;;;;58.50;46.25;;;;;12.30;38.20;102236.63;5010255;28;45459;-69
2022/03/25 06:36:35;;;;;;;;;64.00;48.50;;;;;12.57;38.20;102276.28;5017168;28;45225;-69
2022/03/25 06:39:01;;;;;;;;;58.25;47.00;;;;;12.31;38.41;102252.50;5016794;28;46318;-70
2022/03/25 06:41:26;;;;;;;;;63.25;48.75;;;;;12.40;38.73;102272.25;4999052;28;45393;-69
2022/03/25 06:43:58;;;;;;;;;62.25;48.50;;;;;12.34;38.62;102246.06;4998765;28;45610;-69
2022/03/25 06:46:23;;;;;;;;;62.50;49.00;;;;;12.52;38.47;102281.13;4999104;28;45570;-70
2022/03/25 06:48:49;;;;;;;;;60.50;46.50;;;;;12.53;38.21;102274.84;5016110;28;46081;-70
2022/03/25 06:51:15;;;;;;;;;58.50;45.00;;;;;12.29;38.24;102234.91;5016393;28;45548;-69
2022/03/25 06:53:41;;;;;;;;;56.25;45.50;;;;;12.43;38.29;102254.22;4998700;28;45443;-72
2022/03/25 06:56:07;;;;;;;;;62.00;46.75;;;;;12.69;38.01;102284.19;5016207;28;45427;-70
2022/03/25 06:58:36;;;;;;;;;64.75;48.25;;;;;12.73;38.07;102282.97;4998432;28;47680;-69
2022/03/25 07:01:01;;;;;;;;;60.25;47.50;;;;;12.45;38.00;102233.59;5015973;28;45457;-69
2022/03/25 07:03:27;;;;;;;;;70.00;52.50;;;;;12.99;37.64;102286.25;5014793;28;45439;-69
2022/03/25 07:05:53;;;;;;;;;57.75;45.75;;;;;13.21;37.31;102263.19;5016422;28;45499;-71
2022/03/25 07:08:22;;;;;;;;;58.25;44.00;;;;;13.76;36.22;102266.69;4998198;28;46926;-68
2022/03/25 07:10:48;;;;;;;;;59.50;46.75;;;;;14.32;34.82;102284.16;5014617;28;45769;-69
2022/03/25 07:13:14;;;;;;;;;50.75;39.25;;;;;14.62;34.70;102263.81;4997355;28;45362;-69
2022/03/25 07:15:40;;;;;;;;;60.75;48.00;;;;;15.02;34.31;102282.59;5016451;28;45642;-70
2022/03/25 07:18:05;;;;;;;;;73.50;54.50;;;;;15.12;33.64;102258.50;5015643;28;46127;-70
2022/03/25 07:20:31;;;;;;;;;66.25;51.50;;;;;15.57;33.02;102276.78;5013985;28;45463;-70
2022/03/25 07:22:56;;;;;;;;;68.75;51.00;;;;;15.70;32.46;102266.69;5015992;28;45499;-69
2022/03/25 07:25:22;;;;;;;;;65.00;48.75;;;;;15.82;32.07;102270.94;4998097;28;45385;-71
2022/03/25 07:27:49;;;;;;;;;61.00;48.50;;;;;16.16;31.60;102289.25;5000735;28;48111;-69
2022/03/25 07:30:16;;;;;;;;;62.00;49.25;;;;;16.24;31.07;102281.34;5019153;28;45348;-68
2022/03/25 07:32:41;;;;;;;;;62.25;49.25;;;;;16.04;31.03;102219.66;5001709;28;45440;-68
2022/03/25 07:35:08;;;;;;;;;67.00;51.25;;;;;16.60;30.52;102277.84;5019668;28;45555;-70
2022/03/25 07:37:34;;;;;;;;;62.25;49.25;;;;;16.88;30.51;102302.13;5017301;28;46215;-69
2022/03/25 07:39:59;;;;;;;;;57.25;46.00;;;;;16.83;29.74;102304.41;5019087;28;45447;-68
2022/03/25 07:42:25;;;;;;;;;46.75;38.75;;;;;16.85;29.93;102302.44;5019281;28;45525;-72
2022/03/25 07:44:50;;;;;;;;;62.75;48.25;;;;;17.02;29.86;102315.09;5017602;28;45489;-69
2022/03/25 07:47:16;;;;;;;;;61.50;47.50;;;;;17.06;29.43;102304.88;4978054;28;46099;-70
2022/03/25 07:49:43;;;;;;;;;60.50;48.50;;;;;17.24;29.29;102320.06;4974470;28;45503;-70
2022/03/25 07:52:10;;;;;;;;;55.50;42.50;;;;;17.36;29.11;102317.16;4979049;28;45436;-71
2022/03/25 07:54:36;;;;;;;;;61.50;48.50;;;;;16.85;28.99;102254.06;4979184;28;45491;-71
2022/03/25 07:57:02;;;;;;;;;66.50;50.25;;;;;16.70;29.27;102235.75;4978768;28;45846;-70
2022/03/25 07:59:28;;;;;;;;;67.25;50.75;;;;;17.13;28.85;102290.69;4978646;28;45693;-69
2022/03/25 08:01:54;;;;;;;;;62.25;49.25;;;;;17.11;29.20;102326.78;4979541;28;45313;-71
2022/03/25 08:04:23;;;;;;;;;65.75;49.75;;;;;17.40;29.22;102324.78;4975060;28;45425;-70
2022/03/25 08:06:55;;;;;;;;;63.50;50.50;;;;;17.47;27.92;102303.53;4972086;28;46655;-72
2022/03/25 08:09:21;;;;;;;;;59.50;48.75;;;;;17.49;27.96;102307.75;4970152;28;45373;-71
2022/03/25 08:11:47;;;;;;;;;66.75;51.25;;;;;17.81;28.07;102323.41;4978304;28;45555;-71
2022/03/25 08:14:13;;;;;;;;;66.75;52.50;;;;;18.17;27.74;102312.63;4979979;28;45377;-70
2022/03/25 08:16:39;;;;;;;;;65.25;51.25;;;;;18.05;27.07;102252.84;4978951;28;46279;-69
2022/03/25 08:19:05;;;;;;;;;68.50;50.00;;;;;18.38;26.97;102305.06;4977789;28;45357;-71
2022/03/25 08:21:31;;;;;;;;;63.25;49.75;;;;;18.75;26.80;102318.31;4979009;28;45454;-71
2022/03/25 08:29:25;;;;;;;;;64.75;49.00;;;;;19.79;25.01;102323.47;4974457;28;45449;-69
2022/03/25 08:31:51;;;;;;;;;67.00;51.25;;;;;19.96;24.59;102325.19;4994182;28;45538;-71
2022/03/25 08:34:16;;;;;;;;;65.25;48.00;;;;;20.10;24.79;102293.97;4991024;28;45516;-69
2022/03/25 08:36:43;;;;;;;;;64.00;51.25;;;;;20.52;24.18;102318.13;4959239;28;45480;-71
2022/03/25 08:39:10;;;;;;;;;70.25;51.50;;;;;20.65;23.21;102317.59;4958807;28;45474;-70
2022/03/25 08:41:35;;;;;;;;;59.50;49.50;;;;;20.38;23.78;102317.91;4966129;28;45328;-69
2022/03/25 08:44:01;;;;;;;;;63.75;48.50;;;;;20.54;24.20;102324.19;4979239;28;45386;-73
2022/03/25 08:46:27;;;;;;;;;66.50;47.50;;;;;20.72;23.20;102315.03;4983277;28;47829;-71
2022/03/25 08:48:52;;;;;;;;;65.75;50.25;;;;;20.97;23.50;102303.13;4978814;28;45264;-71
2022/03/25 08:51:18;;;;;;;;;67.00;52.75;;;;;21.39;23.02;102324.44;4977530;28;45450;-71
2022/03/25 08:53:44;;;;;;;;;61.00;48.75;;;;;21.86;22.22;102327.06;4979136;28;45296;-71
2022/03/25 08:56:10;;;;;;;;;61.75;46.75;;;;;22.25;21.51;102309.03;4978642;28;45880;-73
2022/03/25 08:58:36;;;;;;;;;60.25;47.25;;;;;22.14;20.48;102324.66;4976492;28;45573;-73
2022/03/25 09:01:02;;;;;;;;;60.50;47.50;;;;;22.29;21.05;102321.19;4978534;28;45214;-72
2022/03/25 09:03:28;;;;;;;;;59.00;47.00;;;;;22.54;20.88;102303.66;4978753;28;45555;-71
2022/03/25 09:05:53;;;;;;;;;63.50;48.50;;;;;22.95;20.78;102320.34;4974058;28;45768;-71
2022/03/25 09:08:19;;;;;;;;;62.50;49.00;;;;;22.95;20.14;102289.66;4978544;28;45420;-69
2022/03/25 09:10:44;;;;;;;;;60.50;47.75;;;;;23.72;19.71;102313.59;4971602;28;45492;-70
2022/03/25 09:13:11;;;;;;;;;66.50;51.50;;;;;23.81;19.86;102318.69;4991647;28;45514;-69
2022/03/25 09:15:37;;;;;;;;;64.75;51.00;;;;;23.71;19.53;102303.78;4976150;28;45992;-71
2022/03/25 09:18:02;;;;;;;;;61.75;49.25;;;;;23.69;19.58;102301.25;4978546;28;45361;-72
2022/03/25 09:20:28;;;;;;;;;61.75;48.25;;;;;23.97;19.63;102318.44;4977557;28;45611;-70
2022/03/25 09:22:54;;;;;;;;;63.50;50.00;;;;;24.26;19.03;102324.78;4978002;28;45474;-71
2022/03/25 09:25:20;;;;;;;;;61.75;48.00;;;;;24.72;18.95;102305.28;4977553;28;46548;-71
2022/03/25 09:27:46;;;;;;;;;58.50;46.25;;;;;24.91;18.25;102318.16;4972138;28;45626;-70
2022/03/25 09:30:13;;;;;;;;;64.00;50.75;;;;;25.37;18.28;102302.06;4977521;28;45718;-72
2022/03/25 09:32:38;;;;;;;;;67.50;51.50;;;;;26.02;17.15;102316.91;4993052;28;45298;-71
2022/03/25 09:35:10;;;;;;;;;67.00;52.25;;;;;26.43;16.58;102310.47;4976283;28;45752;-72
2022/03/25 09:37:47;;;;;;;;;66.50;50.00;;;;;27.23;16.00;102303.78;4978287;28;45365;-71
2022/03/25 09:40:20;;;;;;;;;66.25;52.75;;;;;28.05;15.85;102309.41;4976218;28;45535;-72
2022/03/25 09:42:47;;;;;;;;;71.25;54.25;;;;;28.53;14.74;102309.63;4961500;28;45431;-72
2022/03/25 09:45:15;;;;;;;;;66.00;50.25;;;;;28.61;14.48;102265.53;4958024;28;47656;-70
2022/03/25 09:47:42;;;;;;;;;67.25;54.00;;;;;28.35;14.74;102301.38;4993079;28;45564;-72
2022/03/25 09:50:12;;;;;;;;;61.25;47.50;;;;;27.51;15.37;102308.88;4977158;28;45468;-71
2022/03/25 09:52:38;;;;;;;;;64.50;48.75;;;;;27.85;15.39;102304.09;4982068;28;45651;-73
2022/03/25 09:55:05;;;;;;;;;66.00;50.75;;;;;28.30;14.75;102279.34;4995436;28;47369;-72
2022/03/25 09:57:31;;;;;;;;;65.00;50.75;;;;;28.96;14.74;102304.16;4994849;28;45545;-72
2022/03/25 09:59:57;;;;;;;;;58.50;46.75;;;;;28.75;15.04;102288.16;4986200;28;45557;-73
2022/03/25 10:02:24;;;;;;;;;68.00;50.75;;;;;27.77;15.20;102307.91;4995527;28;45536;-72
2022/03/25 10:04:50;;;;;;;;;65.00;49.25;;;;;26.79;16.42;102301.78;4996523;28;46553;-71
2022/03/25 10:07:20;;;;;;;;;66.00;51.75;;;;;25.85;17.35;102306.63;4997131;28;45455;-71
2022/03/25 10:09:47;;;;;;;;;66.25;51.75;;;;;25.15;17.48;102256.97;4996686;28;45332;-74
2022/03/25 10:12:24;;;;;;;;;62.75;49.00;;;;;24.63;18.03;102290.16;4996350;28;45566;-71
2022/03/25 10:14:51;;;;;;;;;67.00;51.75;;;;;23.92;18.28;102296.47;4988336;28;45977;-71
2022/03/25 10:17:17;;;;;;;;;65.00;51.25;;;;;23.16;18.80;102264.47;4994066;28;45847;-72
2022/03/25 10:19:48;;;;;;;;;61.25;49.00;;;;;22.71;19.75;102221.13;4995024;28;45251;-69
2022/03/25 10:22:17;;;;;;;;;65.75;51.00;;;;;22.93;19.79;102286.31;4997196;28;45396;-71
2022/03/25 10:24:48;;;;;;;;;66.75;52.75;;;;;22.37;20.05;102223.53;4996441;28;45613;-71
2022/03/25 10:27:24;;;;;;;;;61.00;50.00;;;;;22.60;20.23;102300.19;4996982;28;45486;-70
2022/03/25 10:29:54;;;;;;;;;67.00;52.25;;;;;22.47;20.86;102294.59;4994988;28;45536;-70
2022/03/25 10:32:24;;;;;;;;;64.50;50.75;;;;;21.82;21.55;102254.47;4995327;28;46736;-72
2022/03/25 10:35:09;;;;;;;;;70.50;54.00;;;;;21.44;22.20;102305.84;4996277;28;46594;-73
2022/03/25 10:37:58;;;;;;;;;69.50;52.75;;;;;21.20;21.84;102278.88;4996033;28;45387;-73
2022/03/25 10:40:24;;;;;;;;;68.25;52.25;;;;;21.10;22.10;102280.94;4988852;28;45197;-72
2022/03/25 10:43:10;;;;;;;;;69.00;53.25;;;;;20.88;22.28;102275.28;4997094;28;45297;-72
2022/03/25 10:45:40;;;;;;;;;71.75;56.50;;;;;20.39;22.81;102195.34;5004828;28;48428;-71
2022/03/25 10:48:12;;;;;;;;;61.00;49.00;;;;;20.85;22.68;102293.72;5012905;28;45540;-72
2022/03/25 10:50:57;;;;;;;;;75.25;57.75;;;;;20.11;23.59;102294.81;5014799;28;45515;-71
2022/03/25 10:53:25;;;;;;;;;69.25;55.25;;;;;18.68;23.81;102111.69;4998224;28;45646;-71
2022/03/25 10:55:56;;;;;;;;;62.00;47.50;;;;;19.50;24.31;102278.03;4997731;28;47488;-72
2022/03/25 10:58:21;;;;;;;;;63.25;49.50;;;;;19.36;24.37;102268.72;4998462;28;45654;-75
2022/03/25 11:00:48;;;;;;;;;68.00;51.25;;;;;19.37;24.07;102288.44;4995033;28;45430;-74
2022/03/25 11:03:15;;;;;;;;;66.75;50.50;;;;;19.42;23.61;102296.88;4998698;28;45350;-72
2022/03/25 11:05:42;;;;;;;;;60.75;49.50;;;;;19.43;24.39;102296.72;5008677;28;45322;-72
2022/03/25 11:08:08;;;;;;;;;67.50;54.00;;;;;19.25;25.26;102287.91;5019905;28;45541;-72
2022/03/25 11:10:35;;;;;;;;;69.00;53.25;;;;;19.17;24.94;102273.53;5018958;28;45547;-72
2022/03/25 11:13:03;;;;;;;;;69.00;53.25;;;;;19.07;25.40;102290.69;5019805;28;45397;-73